sensor_id;sensor_type;location;lat;lon;timestamp;P1;durP1;ratioP1;P2;durP2;ratioP2
14348;SDS011;7258;50.376;8.742;2023-11-19T00:00:55;64.93;;;29.63;;
14348;SDS011;7258;50.376;8.742;2023-11-19T00:02:58;68.63;;;31.03;;
14348;SDS011;7258;50.376;8.742;2023-11-19T00:04:59;58.80;;;30.47;;
14348;SDS011;7258;50.376;8.742;2023-11-19T00:07:02;72.97;;;30.67;;
14348;SDS011;7258;50.376;8.742;2023-11-19T00:09:09;76.67;;;32.73;;
14348;SDS011;7258;50.376;8.742;2023-11-19T00:11:11;73.77;;;32.03;;
14348;SDS011;7258;50.376;8.742;2023-11-19T00:13:16;68.63;;;31.67;;
14348;SDS011;7258;50.376;8.742;2023-11-19T00:15:19;60.83;;;29.47;;
14348;SDS011;7258;50.376;8.742;2023-11-19T00:17:22;69.27;;;30.87;;
14348;SDS011;7258;50.376;8.742;2023-11-19T00:19:25;60.80;;;29.67;;
14348;SDS011;7258;50.376;8.742;2023-11-19T00:21:28;68.57;;;31.97;;
14348;SDS011;7258;50.376;8.742;2023-11-19T00:23:31;56.10;;;30.13;;
14348;SDS011;7258;50.376;8.742;2023-11-19T00:25:35;61.77;;;27.80;;
14348;SDS011;7258;50.376;8.742;2023-11-19T00:27:39;62.80;;;29.60;;
14348;SDS011;7258;50.376;8.742;2023-11-19T00:29:45;61.90;;;30.57;;
14348;SDS011;7258;50.376;8.742;2023-11-19T00:31:48;63.07;;;28.33;;
14348;SDS011;7258;50.376;8.742;2023-11-19T00:33:51;54.70;;;29.20;;
14348;SDS011;7258;50.376;8.742;2023-11-19T00:35:54;63.23;;;29.43;;
14348;SDS011;7258;50.376;8.742;2023-11-19T00:37:57;64.60;;;29.93;;
14348;SDS011;7258;50.376;8.742;2023-11-19T00:40:00;61.10;;;28.50;;
14348;SDS011;7258;50.376;8.742;2023-11-19T00:42:07;59.30;;;28.40;;
14348;SDS011;7258;50.376;8.742;2023-11-19T00:44:11;53.93;;;28.20;;
14348;SDS011;7258;50.376;8.742;2023-11-19T00:46:14;57.27;;;28.23;;
14348;SDS011;7258;50.376;8.742;2023-11-19T00:48:17;53.03;;;26.57;;
14348;SDS011;7258;50.376;8.742;2023-11-19T00:50:19;54.77;;;27.97;;
14348;SDS011;7258;50.376;8.742;2023-11-19T00:52:23;58.20;;;28.57;;
14348;SDS011;7258;50.376;8.742;2023-11-19T00:54:27;70.30;;;30.60;;
14348;SDS011;7258;50.376;8.742;2023-11-19T00:56:28;64.40;;;29.37;;
14348;SDS011;7258;50.376;8.742;2023-11-19T00:58:33;58.20;;;27.57;;
14348;SDS011;7258;50.376;8.742;2023-11-19T01:00:34;58.23;;;27.57;;
14348;SDS011;7258;50.376;8.742;2023-11-19T01:02:37;64.67;;;29.30;;
14348;SDS011;7258;50.376;8.742;2023-11-19T01:04:40;46.97;;;26.50;;
14348;SDS011;7258;50.376;8.742;2023-11-19T01:06:42;56.90;;;27.70;;
14348;SDS011;7258;50.376;8.742;2023-11-19T01:08:48;56.83;;;27.30;;
14348;SDS011;7258;50.376;8.742;2023-11-19T01:10:51;51.27;;;26.57;;
14348;SDS011;7258;50.376;8.742;2023-11-19T01:12:54;52.73;;;26.93;;
14348;SDS011;7258;50.376;8.742;2023-11-19T01:14:58;60.10;;;28.07;;
14348;SDS011;7258;50.376;8.742;2023-11-19T01:17:00;54.00;;;25.97;;
14348;SDS011;7258;50.376;8.742;2023-11-19T01:19:04;51.40;;;25.80;;
14348;SDS011;7258;50.376;8.742;2023-11-19T01:21:18;62.13;;;26.70;;
14348;SDS011;7258;50.376;8.742;2023-11-19T01:23:21;59.27;;;27.40;;
14348;SDS011;7258;50.376;8.742;2023-11-19T01:25:23;57.90;;;26.37;;
14348;SDS011;7258;50.376;8.742;2023-11-19T01:27:25;54.13;;;25.17;;
14348;SDS011;7258;50.376;8.742;2023-11-19T01:29:28;54.47;;;26.00;;
14348;SDS011;7258;50.376;8.742;2023-11-19T01:31:31;58.70;;;26.77;;
14348;SDS011;7258;50.376;8.742;2023-11-19T01:33:35;61.33;;;26.23;;
14348;SDS011;7258;50.376;8.742;2023-11-19T01:35:37;60.17;;;26.57;;
14348;SDS011;7258;50.376;8.742;2023-11-19T01:37:40;63.50;;;26.70;;
14348;SDS011;7258;50.376;8.742;2023-11-19T01:39:43;56.03;;;26.27;;
14348;SDS011;7258;50.376;8.742;2023-11-19T01:41:58;44.30;;;22.70;;
14348;SDS011;7258;50.376;8.742;2023-11-19T01:44:01;53.40;;;23.83;;
14348;SDS011;7258;50.376;8.742;2023-11-19T01:46:04;57.20;;;23.20;;
14348;SDS011;7258;50.376;8.742;2023-11-19T01:48:12;40.03;;;21.73;;
14348;SDS011;7258;50.376;8.742;2023-11-19T01:50:16;45.13;;;21.87;;
14348;SDS011;7258;50.376;8.742;2023-11-19T01:52:20;38.10;;;19.53;;
14348;SDS011;7258;50.376;8.742;2023-11-19T01:54:24;49.40;;;22.57;;
14348;SDS011;7258;50.376;8.742;2023-11-19T01:56:27;49.70;;;23.93;;
14348;SDS011;7258;50.376;8.742;2023-11-19T01:58:31;40.83;;;20.93;;
14348;SDS011;7258;50.376;8.742;2023-11-19T02:00:33;42.13;;;20.87;;
14348;SDS011;7258;50.376;8.742;2023-11-19T02:02:36;44.80;;;22.27;;
14348;SDS011;7258;50.376;8.742;2023-11-19T02:04:42;47.70;;;22.87;;
14348;SDS011;7258;50.376;8.742;2023-11-19T02:06:45;50.17;;;23.40;;
14348;SDS011;7258;50.376;8.742;2023-11-19T02:08:53;47.13;;;23.63;;
14348;SDS011;7258;50.376;8.742;2023-11-19T02:10:56;50.20;;;24.33;;
14348;SDS011;7258;50.376;8.742;2023-11-19T02:12:59;60.50;;;24.77;;
14348;SDS011;7258;50.376;8.742;2023-11-19T02:15:05;57.23;;;25.50;;
14348;SDS011;7258;50.376;8.742;2023-11-19T02:17:18;50.40;;;23.87;;
14348;SDS011;7258;50.376;8.742;2023-11-19T02:19:27;50.80;;;24.90;;
14348;SDS011;7258;50.376;8.742;2023-11-19T02:21:31;47.27;;;23.53;;
14348;SDS011;7258;50.376;8.742;2023-11-19T02:23:34;53.67;;;24.13;;
14348;SDS011;7258;50.376;8.742;2023-11-19T02:25:37;54.80;;;25.37;;
14348;SDS011;7258;50.376;8.742;2023-11-19T02:27:45;49.33;;;23.87;;
14348;SDS011;7258;50.376;8.742;2023-11-19T02:29:56;57.90;;;25.23;;
14348;SDS011;7258;50.376;8.742;2023-11-19T02:31:59;49.80;;;24.93;;
14348;SDS011;7258;50.376;8.742;2023-11-19T02:34:04;53.87;;;25.50;;
14348;SDS011;7258;50.376;8.742;2023-11-19T02:36:08;53.07;;;26.20;;
14348;SDS011;7258;50.376;8.742;2023-11-19T02:38:11;60.87;;;27.50;;
14348;SDS011;7258;50.376;8.742;2023-11-19T02:40:15;55.90;;;27.30;;
14348;SDS011;7258;50.376;8.742;2023-11-19T02:42:18;61.33;;;28.17;;
14348;SDS011;7258;50.376;8.742;2023-11-19T02:44:21;61.10;;;28.70;;
14348;SDS011;7258;50.376;8.742;2023-11-19T02:46:24;66.23;;;29.63;;
14348;SDS011;7258;50.376;8.742;2023-11-19T02:48:27;72.97;;;31.03;;
14348;SDS011;7258;50.376;8.742;2023-11-19T02:50:29;70.80;;;31.17;;
14348;SDS011;7258;50.376;8.742;2023-11-19T02:52:32;72.87;;;31.33;;
14348;SDS011;7258;50.376;8.742;2023-11-19T02:54:39;64.97;;;30.20;;
14348;SDS011;7258;50.376;8.742;2023-11-19T02:56:42;68.27;;;31.20;;
14348;SDS011;7258;50.376;8.742;2023-11-19T02:58:48;76.57;;;32.87;;
14348;SDS011;7258;50.376;8.742;2023-11-19T03:00:53;79.40;;;32.03;;
14348;SDS011;7258;50.376;8.742;2023-11-19T03:02:59;66.20;;;30.30;;
14348;SDS011;7258;50.376;8.742;2023-11-19T03:05:11;74.43;;;31.50;;
14348;SDS011;7258;50.376;8.742;2023-11-19T03:07:15;74.33;;;30.80;;
14348;SDS011;7258;50.376;8.742;2023-11-19T03:09:19;68.13;;;30.13;;
14348;SDS011;7258;50.376;8.742;2023-11-19T03:11:21;68.13;;;29.50;;
14348;SDS011;7258;50.376;8.742;2023-11-19T03:13:23;67.93;;;31.17;;
14348;SDS011;7258;50.376;8.742;2023-11-19T03:15:26;77.30;;;30.97;;
14348;SDS011;7258;50.376;8.742;2023-11-19T03:17:29;81.03;;;31.97;;
14348;SDS011;7258;50.376;8.742;2023-11-19T03:19:32;71.47;;;29.53;;
14348;SDS011;7258;50.376;8.742;2023-11-19T03:21:35;55.63;;;25.33;;
14348;SDS011;7258;50.376;8.742;2023-11-19T03:23:37;60.67;;;27.57;;
14348;SDS011;7258;50.376;8.742;2023-11-19T03:25:41;50.30;;;26.00;;
14348;SDS011;7258;50.376;8.742;2023-11-19T03:27:43;44.20;;;22.50;;
14348;SDS011;7258;50.376;8.742;2023-11-19T03:29:46;45.23;;;23.80;;
14348;SDS011;7258;50.376;8.742;2023-11-19T03:31:47;47.13;;;23.30;;
14348;SDS011;7258;50.376;8.742;2023-11-19T03:33:52;41.97;;;22.13;;
14348;SDS011;7258;50.376;8.742;2023-11-19T03:35:59;39.10;;;21.47;;
14348;SDS011;7258;50.376;8.742;2023-11-19T03:38:02;37.67;;;19.97;;
14348;SDS011;7258;50.376;8.742;2023-11-19T03:40:04;38.47;;;20.10;;
14348;SDS011;7258;50.376;8.742;2023-11-19T03:42:08;31.80;;;18.70;;
14348;SDS011;7258;50.376;8.742;2023-11-19T03:44:13;35.60;;;19.60;;
14348;SDS011;7258;50.376;8.742;2023-11-19T03:46:16;33.93;;;18.03;;
14348;SDS011;7258;50.376;8.742;2023-11-19T03:48:20;30.57;;;17.73;;
14348;SDS011;7258;50.376;8.742;2023-11-19T03:50:24;32.77;;;17.93;;
14348;SDS011;7258;50.376;8.742;2023-11-19T03:52:27;34.63;;;18.13;;
14348;SDS011;7258;50.376;8.742;2023-11-19T03:54:30;28.83;;;17.17;;
14348;SDS011;7258;50.376;8.742;2023-11-19T03:56:34;31.43;;;17.90;;
14348;SDS011;7258;50.376;8.742;2023-11-19T03:58:37;32.07;;;18.57;;
14348;SDS011;7258;50.376;8.742;2023-11-19T04:00:40;34.57;;;18.80;;
14348;SDS011;7258;50.376;8.742;2023-11-19T04:02:42;36.47;;;19.83;;
14348;SDS011;7258;50.376;8.742;2023-11-19T04:04:45;37.50;;;19.93;;
14348;SDS011;7258;50.376;8.742;2023-11-19T04:06:50;41.53;;;20.83;;
14348;SDS011;7258;50.376;8.742;2023-11-19T04:08:53;35.20;;;19.60;;
14348;SDS011;7258;50.376;8.742;2023-11-19T04:10:56;40.83;;;20.80;;
14348;SDS011;7258;50.376;8.742;2023-11-19T04:12:59;36.87;;;21.23;;
14348;SDS011;7258;50.376;8.742;2023-11-19T04:15:03;36.87;;;21.17;;
14348;SDS011;7258;50.376;8.742;2023-11-19T04:17:07;37.83;;;20.60;;
14348;SDS011;7258;50.376;8.742;2023-11-19T04:19:10;37.07;;;20.23;;
14348;SDS011;7258;50.376;8.742;2023-11-19T04:21:13;37.60;;;21.00;;
14348;SDS011;7258;50.376;8.742;2023-11-19T04:23:17;39.10;;;21.30;;
14348;SDS011;7258;50.376;8.742;2023-11-19T04:25:19;39.37;;;21.00;;
14348;SDS011;7258;50.376;8.742;2023-11-19T04:27:22;37.03;;;20.07;;
14348;SDS011;7258;50.376;8.742;2023-11-19T04:29:25;36.27;;;20.37;;
14348;SDS011;7258;50.376;8.742;2023-11-19T04:31:28;38.67;;;19.73;;
14348;SDS011;7258;50.376;8.742;2023-11-19T04:33:32;36.43;;;19.43;;
14348;SDS011;7258;50.376;8.742;2023-11-19T04:35:35;37.00;;;20.40;;
14348;SDS011;7258;50.376;8.742;2023-11-19T04:37:38;38.30;;;19.00;;
14348;SDS011;7258;50.376;8.742;2023-11-19T04:39:42;33.07;;;18.53;;
14348;SDS011;7258;50.376;8.742;2023-11-19T04:41:47;30.27;;;16.33;;
14348;SDS011;7258;50.376;8.742;2023-11-19T04:43:51;27.23;;;14.77;;
14348;SDS011;7258;50.376;8.742;2023-11-19T04:45:54;22.27;;;13.63;;
14348;SDS011;7258;50.376;8.742;2023-11-19T04:47:57;24.57;;;13.00;;
14348;SDS011;7258;50.376;8.742;2023-11-19T04:50:00;20.10;;;12.30;;
14348;SDS011;7258;50.376;8.742;2023-11-19T04:52:03;25.43;;;13.53;;
14348;SDS011;7258;50.376;8.742;2023-11-19T04:54:06;20.87;;;12.47;;
14348;SDS011;7258;50.376;8.742;2023-11-19T04:56:11;20.40;;;12.33;;
14348;SDS011;7258;50.376;8.742;2023-11-19T04:58:14;18.97;;;12.37;;
14348;SDS011;7258;50.376;8.742;2023-11-19T05:00:17;21.03;;;11.70;;
14348;SDS011;7258;50.376;8.742;2023-11-19T05:02:21;23.17;;;12.80;;
14348;SDS011;7258;50.376;8.742;2023-11-19T05:04:24;21.27;;;13.13;;
14348;SDS011;7258;50.376;8.742;2023-11-19T05:06:27;21.90;;;13.13;;
14348;SDS011;7258;50.376;8.742;2023-11-19T05:08:31;25.60;;;14.30;;
14348;SDS011;7258;50.376;8.742;2023-11-19T05:10:34;25.57;;;14.47;;
14348;SDS011;7258;50.376;8.742;2023-11-19T05:12:39;26.87;;;14.83;;
14348;SDS011;7258;50.376;8.742;2023-11-19T05:14:43;27.90;;;15.20;;
14348;SDS011;7258;50.376;8.742;2023-11-19T05:16:50;25.03;;;14.63;;
14348;SDS011;7258;50.376;8.742;2023-11-19T05:18:56;27.77;;;14.77;;
14348;SDS011;7258;50.376;8.742;2023-11-19T05:20:59;27.67;;;15.87;;
14348;SDS011;7258;50.376;8.742;2023-11-19T05:23:01;24.20;;;14.57;;
14348;SDS011;7258;50.376;8.742;2023-11-19T05:25:04;27.77;;;15.90;;
14348;SDS011;7258;50.376;8.742;2023-11-19T05:27:07;25.13;;;15.13;;
14348;SDS011;7258;50.376;8.742;2023-11-19T05:29:13;32.77;;;15.97;;
14348;SDS011;7258;50.376;8.742;2023-11-19T05:31:16;29.70;;;15.83;;
14348;SDS011;7258;50.376;8.742;2023-11-19T05:33:20;32.00;;;16.20;;
14348;SDS011;7258;50.376;8.742;2023-11-19T05:35:23;33.80;;;17.17;;
14348;SDS011;7258;50.376;8.742;2023-11-19T05:37:25;29.90;;;16.30;;
14348;SDS011;7258;50.376;8.742;2023-11-19T05:39:28;32.73;;;17.07;;
14348;SDS011;7258;50.376;8.742;2023-11-19T05:41:31;28.53;;;16.00;;
14348;SDS011;7258;50.376;8.742;2023-11-19T05:43:34;30.00;;;15.33;;
14348;SDS011;7258;50.376;8.742;2023-11-19T05:45:38;31.67;;;16.17;;
14348;SDS011;7258;50.376;8.742;2023-11-19T05:47:41;25.43;;;14.50;;
14348;SDS011;7258;50.376;8.742;2023-11-19T05:49:45;22.93;;;12.73;;
14348;SDS011;7258;50.376;8.742;2023-11-19T05:51:48;27.67;;;14.37;;
14348;SDS011;7258;50.376;8.742;2023-11-19T05:53:51;22.60;;;13.23;;
14348;SDS011;7258;50.376;8.742;2023-11-19T05:55:52;27.40;;;14.30;;
14348;SDS011;7258;50.376;8.742;2023-11-19T05:57:57;24.67;;;13.60;;
14348;SDS011;7258;50.376;8.742;2023-11-19T06:00:00;23.83;;;12.40;;
14348;SDS011;7258;50.376;8.742;2023-11-19T06:02:03;25.27;;;13.03;;
14348;SDS011;7258;50.376;8.742;2023-11-19T06:04:06;23.30;;;12.77;;
14348;SDS011;7258;50.376;8.742;2023-11-19T06:06:09;23.53;;;12.23;;
14348;SDS011;7258;50.376;8.742;2023-11-19T06:08:11;23.73;;;12.30;;
14348;SDS011;7258;50.376;8.742;2023-11-19T06:10:15;20.87;;;11.77;;
14348;SDS011;7258;50.376;8.742;2023-11-19T06:12:18;26.40;;;13.27;;
14348;SDS011;7258;50.376;8.742;2023-11-19T06:14:21;24.87;;;13.23;;
14348;SDS011;7258;50.376;8.742;2023-11-19T06:16:25;28.70;;;14.47;;
14348;SDS011;7258;50.376;8.742;2023-11-19T06:18:29;28.23;;;13.63;;
14348;SDS011;7258;50.376;8.742;2023-11-19T06:20:33;33.17;;;15.20;;
14348;SDS011;7258;50.376;8.742;2023-11-19T06:22:39;31.33;;;15.43;;
14348;SDS011;7258;50.376;8.742;2023-11-19T06:24:43;31.97;;;15.77;;
14348;SDS011;7258;50.376;8.742;2023-11-19T06:26:46;37.07;;;16.80;;
14348;SDS011;7258;50.376;8.742;2023-11-19T06:28:49;35.40;;;17.13;;
14348;SDS011;7258;50.376;8.742;2023-11-19T06:30:51;36.07;;;17.40;;
14348;SDS011;7258;50.376;8.742;2023-11-19T06:32:54;44.20;;;17.97;;
14348;SDS011;7258;50.376;8.742;2023-11-19T06:34:58;39.67;;;17.80;;
14348;SDS011;7258;50.376;8.742;2023-11-19T06:37:01;38.10;;;17.67;;
14348;SDS011;7258;50.376;8.742;2023-11-19T06:39:05;41.53;;;17.93;;
14348;SDS011;7258;50.376;8.742;2023-11-19T06:41:07;40.90;;;18.20;;
14348;SDS011;7258;50.376;8.742;2023-11-19T06:43:11;39.17;;;17.57;;
14348;SDS011;7258;50.376;8.742;2023-11-19T06:45:15;45.50;;;18.67;;
14348;SDS011;7258;50.376;8.742;2023-11-19T06:47:18;42.03;;;18.13;;
14348;SDS011;7258;50.376;8.742;2023-11-19T06:49:21;46.33;;;19.27;;
14348;SDS011;7258;50.376;8.742;2023-11-19T06:51:25;41.77;;;17.13;;
14348;SDS011;7258;50.376;8.742;2023-11-19T06:53:28;43.50;;;18.30;;
14348;SDS011;7258;50.376;8.742;2023-11-19T06:55:31;44.87;;;18.30;;
14348;SDS011;7258;50.376;8.742;2023-11-19T06:57:34;35.40;;;17.03;;
14348;SDS011;7258;50.376;8.742;2023-11-19T06:59:37;39.47;;;16.90;;
14348;SDS011;7258;50.376;8.742;2023-11-19T07:01:40;39.73;;;17.23;;
14348;SDS011;7258;50.376;8.742;2023-11-19T07:03:44;39.23;;;17.63;;
14348;SDS011;7258;50.376;8.742;2023-11-19T07:05:48;44.10;;;18.53;;
14348;SDS011;7258;50.376;8.742;2023-11-19T07:07:52;38.60;;;17.60;;
14348;SDS011;7258;50.376;8.742;2023-11-19T07:09:55;36.37;;;17.60;;
14348;SDS011;7258;50.376;8.742;2023-11-19T07:11:58;43.13;;;18.70;;
14348;SDS011;7258;50.376;8.742;2023-11-19T07:14:02;45.70;;;18.90;;
14348;SDS011;7258;50.376;8.742;2023-11-19T07:16:05;38.23;;;17.77;;
14348;SDS011;7258;50.376;8.742;2023-11-19T07:18:11;39.07;;;17.57;;
14348;SDS011;7258;50.376;8.742;2023-11-19T07:20:14;41.90;;;18.13;;
14348;SDS011;7258;50.376;8.742;2023-11-19T07:22:17;40.10;;;17.40;;
14348;SDS011;7258;50.376;8.742;2023-11-19T07:24:21;40.23;;;17.70;;
14348;SDS011;7258;50.376;8.742;2023-11-19T07:26:24;42.97;;;17.80;;
14348;SDS011;7258;50.376;8.742;2023-11-19T07:28:28;39.27;;;17.60;;
14348;SDS011;7258;50.376;8.742;2023-11-19T07:30:31;40.37;;;18.07;;
14348;SDS011;7258;50.376;8.742;2023-11-19T07:32:33;39.80;;;18.07;;
14348;SDS011;7258;50.376;8.742;2023-11-19T07:34:36;42.80;;;19.20;;
14348;SDS011;7258;50.376;8.742;2023-11-19T07:36:39;43.47;;;19.87;;
14348;SDS011;7258;50.376;8.742;2023-11-19T07:38:42;47.17;;;20.30;;
14348;SDS011;7258;50.376;8.742;2023-11-19T07:40:46;50.27;;;20.47;;
14348;SDS011;7258;50.376;8.742;2023-11-19T07:42:52;43.90;;;18.83;;
14348;SDS011;7258;50.376;8.742;2023-11-19T07:44:55;45.70;;;19.67;;
14348;SDS011;7258;50.376;8.742;2023-11-19T07:46:58;44.33;;;18.33;;
14348;SDS011;7258;50.376;8.742;2023-11-19T07:49:01;49.77;;;18.63;;
14348;SDS011;7258;50.376;8.742;2023-11-19T07:51:04;41.57;;;18.67;;
14348;SDS011;7258;50.376;8.742;2023-11-19T07:53:07;40.90;;;19.40;;
14348;SDS011;7258;50.376;8.742;2023-11-19T07:55:10;49.20;;;22.87;;
14348;SDS011;7258;50.376;8.742;2023-11-19T07:57:14;45.40;;;20.47;;
14348;SDS011;7258;50.376;8.742;2023-11-19T07:59:17;38.30;;;18.53;;
14348;SDS011;7258;50.376;8.742;2023-11-19T08:01:20;39.87;;;18.10;;
14348;SDS011;7258;50.376;8.742;2023-11-19T08:03:24;40.47;;;18.90;;
14348;SDS011;7258;50.376;8.742;2023-11-19T08:05:28;35.47;;;17.80;;
14348;SDS011;7258;50.376;8.742;2023-11-19T08:07:30;41.07;;;18.13;;
14348;SDS011;7258;50.376;8.742;2023-11-19T08:09:33;34.27;;;16.83;;
14348;SDS011;7258;50.376;8.742;2023-11-19T08:11:35;35.57;;;17.03;;
14348;SDS011;7258;50.376;8.742;2023-11-19T08:13:39;36.80;;;17.03;;
14348;SDS011;7258;50.376;8.742;2023-11-19T08:15:43;34.93;;;16.57;;
14348;SDS011;7258;50.376;8.742;2023-11-19T08:17:44;35.57;;;17.10;;
14348;SDS011;7258;50.376;8.742;2023-11-19T08:19:48;32.80;;;16.10;;
14348;SDS011;7258;50.376;8.742;2023-11-19T08:21:51;29.97;;;14.57;;
14348;SDS011;7258;50.376;8.742;2023-11-19T08:23:54;30.20;;;15.37;;
14348;SDS011;7258;50.376;8.742;2023-11-19T08:25:56;28.80;;;14.97;;
14348;SDS011;7258;50.376;8.742;2023-11-19T08:27:58;31.60;;;15.43;;
14348;SDS011;7258;50.376;8.742;2023-11-19T08:30:03;28.70;;;14.93;;
14348;SDS011;7258;50.376;8.742;2023-11-19T08:32:07;22.93;;;14.03;;
14348;SDS011;7258;50.376;8.742;2023-11-19T08:34:10;26.43;;;14.83;;
14348;SDS011;7258;50.376;8.742;2023-11-19T08:36:16;24.23;;;14.50;;
14348;SDS011;7258;50.376;8.742;2023-11-19T08:38:19;24.27;;;13.47;;
14348;SDS011;7258;50.376;8.742;2023-11-19T08:40:24;24.33;;;13.30;;
14348;SDS011;7258;50.376;8.742;2023-11-19T08:42:27;27.73;;;13.53;;
14348;SDS011;7258;50.376;8.742;2023-11-19T08:44:31;20.63;;;12.40;;
14348;SDS011;7258;50.376;8.742;2023-11-19T08:46:35;21.33;;;11.37;;
14348;SDS011;7258;50.376;8.742;2023-11-19T08:48:38;17.87;;;10.47;;
14348;SDS011;7258;50.376;8.742;2023-11-19T08:50:40;21.10;;;5.87;;
14348;SDS011;7258;50.376;8.742;2023-11-19T08:52:43;15.07;;;4.80;;
14348;SDS011;7258;50.376;8.742;2023-11-19T08:54:46;12.27;;;4.63;;
14348;SDS011;7258;50.376;8.742;2023-11-19T08:56:49;14.77;;;4.07;;
14348;SDS011;7258;50.376;8.742;2023-11-19T08:58:52;12.73;;;3.50;;
14348;SDS011;7258;50.376;8.742;2023-11-19T09:00:55;15.77;;;4.22;;
14348;SDS011;7258;50.376;8.742;2023-11-19T09:02:59;17.87;;;3.93;;
14348;SDS011;7258;50.376;8.742;2023-11-19T09:05:02;12.45;;;2.80;;
14348;SDS011;7258;50.376;8.742;2023-11-19T09:07:05;13.75;;;2.92;;
14348;SDS011;7258;50.376;8.742;2023-11-19T09:09:08;14.35;;;2.90;;
14348;SDS011;7258;50.376;8.742;2023-11-19T09:11:11;13.77;;;3.40;;
14348;SDS011;7258;50.376;8.742;2023-11-19T09:13:13;10.20;;;2.78;;
14348;SDS011;7258;50.376;8.742;2023-11-19T09:15:16;3.78;;;2.10;;
14348;SDS011;7258;50.376;8.742;2023-11-19T09:17:19;7.25;;;2.40;;
14348;SDS011;7258;50.376;8.742;2023-11-19T09:19:23;11.57;;;2.50;;
14348;SDS011;7258;50.376;8.742;2023-11-19T09:21:27;9.32;;;2.70;;
14348;SDS011;7258;50.376;8.742;2023-11-19T09:23:31;9.70;;;2.53;;
14348;SDS011;7258;50.376;8.742;2023-11-19T09:25:37;7.88;;;2.45;;
14348;SDS011;7258;50.376;8.742;2023-11-19T09:27:43;4.22;;;1.90;;
14348;SDS011;7258;50.376;8.742;2023-11-19T09:29:46;7.03;;;2.30;;
14348;SDS011;7258;50.376;8.742;2023-11-19T09:31:51;4.93;;;2.20;;
14348;SDS011;7258;50.376;8.742;2023-11-19T09:33:53;6.63;;;2.00;;
14348;SDS011;7258;50.376;8.742;2023-11-19T09:35:57;6.82;;;2.22;;
14348;SDS011;7258;50.376;8.742;2023-11-19T09:37:59;8.27;;;2.13;;
14348;SDS011;7258;50.376;8.742;2023-11-19T09:40:06;7.65;;;2.17;;
14348;SDS011;7258;50.376;8.742;2023-11-19T09:42:10;8.30;;;2.70;;
14348;SDS011;7258;50.376;8.742;2023-11-19T09:44:13;7.47;;;2.17;;
14348;SDS011;7258;50.376;8.742;2023-11-19T09:46:19;7.88;;;2.38;;
14348;SDS011;7258;50.376;8.742;2023-11-19T09:48:25;9.50;;;2.78;;
14348;SDS011;7258;50.376;8.742;2023-11-19T09:50:29;10.32;;;2.50;;
14348;SDS011;7258;50.376;8.742;2023-11-19T09:52:35;8.23;;;2.45;;
14348;SDS011;7258;50.376;8.742;2023-11-19T09:54:37;11.88;;;2.63;;
14348;SDS011;7258;50.376;8.742;2023-11-19T09:56:40;8.65;;;2.85;;
14348;SDS011;7258;50.376;8.742;2023-11-19T09:58:43;9.35;;;2.35;;
14348;SDS011;7258;50.376;8.742;2023-11-19T10:00:47;14.85;;;2.65;;
14348;SDS011;7258;50.376;8.742;2023-11-19T10:03:11;9.98;;;2.60;;
14348;SDS011;7258;50.376;8.742;2023-11-19T10:05:14;11.90;;;2.85;;
14348;SDS011;7258;50.376;8.742;2023-11-19T10:07:17;7.53;;;2.22;;
14348;SDS011;7258;50.376;8.742;2023-11-19T10:09:21;8.02;;;2.65;;
14348;SDS011;7258;50.376;8.742;2023-11-19T10:11:24;8.20;;;3.17;;
14348;SDS011;7258;50.376;8.742;2023-11-19T10:13:27;12.68;;;2.80;;
14348;SDS011;7258;50.376;8.742;2023-11-19T10:15:33;12.82;;;3.28;;
14348;SDS011;7258;50.376;8.742;2023-11-19T10:17:38;10.40;;;2.65;;
14348;SDS011;7258;50.376;8.742;2023-11-19T10:19:41;12.20;;;3.17;;
14348;SDS011;7258;50.376;8.742;2023-11-19T10:21:44;7.68;;;2.65;;
14348;SDS011;7258;50.376;8.742;2023-11-19T10:23:48;10.80;;;2.83;;
14348;SDS011;7258;50.376;8.742;2023-11-19T10:25:54;9.30;;;2.67;;
14348;SDS011;7258;50.376;8.742;2023-11-19T10:28:04;9.65;;;2.80;;
14348;SDS011;7258;50.376;8.742;2023-11-19T10:30:07;9.43;;;2.80;;
14348;SDS011;7258;50.376;8.742;2023-11-19T10:32:12;8.95;;;2.83;;
14348;SDS011;7258;50.376;8.742;2023-11-19T10:34:27;9.70;;;2.95;;
14348;SDS011;7258;50.376;8.742;2023-11-19T10:36:37;10.75;;;2.63;;
14348;SDS011;7258;50.376;8.742;2023-11-19T10:38:42;9.57;;;3.22;;
14348;SDS011;7258;50.376;8.742;2023-11-19T10:40:54;10.30;;;3.17;;
14348;SDS011;7258;50.376;8.742;2023-11-19T10:43:01;7.20;;;2.58;;
14348;SDS011;7258;50.376;8.742;2023-11-19T10:45:04;15.20;;;3.70;;
14348;SDS011;7258;50.376;8.742;2023-11-19T10:47:08;9.82;;;3.25;;
14348;SDS011;7258;50.376;8.742;2023-11-19T10:49:12;10.85;;;3.13;;
14348;SDS011;7258;50.376;8.742;2023-11-19T10:51:17;9.68;;;2.80;;
14348;SDS011;7258;50.376;8.742;2023-11-19T10:53:22;11.35;;;3.08;;
14348;SDS011;7258;50.376;8.742;2023-11-19T10:55:27;14.02;;;3.20;;
14348;SDS011;7258;50.376;8.742;2023-11-19T10:57:33;11.07;;;3.20;;
14348;SDS011;7258;50.376;8.742;2023-11-19T10:59:40;13.18;;;3.33;;
14348;SDS011;7258;50.376;8.742;2023-11-19T11:01:46;11.50;;;3.03;;
14348;SDS011;7258;50.376;8.742;2023-11-19T11:03:52;10.30;;;3.20;;
14348;SDS011;7258;50.376;8.742;2023-11-19T11:05:57;13.52;;;3.60;;
14348;SDS011;7258;50.376;8.742;2023-11-19T11:08:01;9.60;;;2.92;;
14348;SDS011;7258;50.376;8.742;2023-11-19T11:10:05;11.15;;;3.05;;
14348;SDS011;7258;50.376;8.742;2023-11-19T11:12:10;7.47;;;2.50;;
14348;SDS011;7258;50.376;8.742;2023-11-19T11:14:15;10.70;;;2.97;;
14348;SDS011;7258;50.376;8.742;2023-11-19T11:16:21;9.07;;;3.08;;
14348;SDS011;7258;50.376;8.742;2023-11-19T11:18:26;10.25;;;3.40;;
14348;SDS011;7258;50.376;8.742;2023-11-19T11:20:29;9.65;;;2.80;;
14348;SDS011;7258;50.376;8.742;2023-11-19T11:22:39;9.68;;;3.20;;
14348;SDS011;7258;50.376;8.742;2023-11-19T11:25:08;11.85;;;2.88;;
14348;SDS011;7258;50.376;8.742;2023-11-19T11:27:28;12.38;;;3.05;;
14348;SDS011;7258;50.376;8.742;2023-11-19T11:29:51;9.27;;;3.17;;
14348;SDS011;7258;50.376;8.742;2023-11-19T11:32:05;8.95;;;3.05;;
14348;SDS011;7258;50.376;8.742;2023-11-19T11:34:27;9.20;;;2.90;;
14348;SDS011;7258;50.376;8.742;2023-11-19T11:36:46;11.60;;;3.00;;
14348;SDS011;7258;50.376;8.742;2023-11-19T11:38:55;8.98;;;2.72;;
14348;SDS011;7258;50.376;8.742;2023-11-19T11:41:17;11.05;;;2.72;;
14348;SDS011;7258;50.376;8.742;2023-11-19T11:43:43;12.50;;;3.10;;
14348;SDS011;7258;50.376;8.742;2023-11-19T11:45:48;11.18;;;2.95;;
14348;SDS011;7258;50.376;8.742;2023-11-19T11:48:04;9.18;;;3.03;;
14348;SDS011;7258;50.376;8.742;2023-11-19T11:50:12;11.75;;;3.00;;
14348;SDS011;7258;50.376;8.742;2023-11-19T11:52:17;10.60;;;3.05;;
14348;SDS011;7258;50.376;8.742;2023-11-19T11:54:27;12.52;;;3.55;;
14348;SDS011;7258;50.376;8.742;2023-11-19T11:56:32;13.25;;;3.03;;
14348;SDS011;7258;50.376;8.742;2023-11-19T11:58:35;12.10;;;3.63;;
14348;SDS011;7258;50.376;8.742;2023-11-19T12:00:40;15.13;;;2.85;;
14348;SDS011;7258;50.376;8.742;2023-11-19T12:02:44;11.32;;;3.05;;
14348;SDS011;7258;50.376;8.742;2023-11-19T12:04:47;10.48;;;3.35;;
14348;SDS011;7258;50.376;8.742;2023-11-19T12:07:02;8.98;;;2.92;;
14348;SDS011;7258;50.376;8.742;2023-11-19T12:09:06;17.88;;;3.60;;
14348;SDS011;7258;50.376;8.742;2023-11-19T12:11:09;8.25;;;3.25;;
14348;SDS011;7258;50.376;8.742;2023-11-19T12:13:13;11.18;;;3.67;;
14348;SDS011;7258;50.376;8.742;2023-11-19T12:15:15;8.10;;;3.03;;
14348;SDS011;7258;50.376;8.742;2023-11-19T12:17:36;8.02;;;2.78;;
14348;SDS011;7258;50.376;8.742;2023-11-19T12:19:43;11.52;;;3.67;;
14348;SDS011;7258;50.376;8.742;2023-11-19T12:21:46;8.40;;;2.65;;
14348;SDS011;7258;50.376;8.742;2023-11-19T12:23:49;13.25;;;3.13;;